createdAt,value
2023-04-26T00:00:19.891Z,8.38
2023-04-26T00:03:21.990Z,8.32
2023-04-26T00:06:23.955Z,8.34
2023-04-26T00:09:25.845Z,8.28
2023-04-26T00:12:27.901Z,8.25
2023-04-26T00:15:29.917Z,8.25
2023-04-26T00:18:31.984Z,8.27
2023-04-26T00:21:33.924Z,8.27
2023-04-26T00:24:36.178Z,8.27
2023-04-26T00:27:38.055Z,8.23
2023-04-26T00:30:47.452Z,8.20
2023-04-26T00:33:51.098Z,8.14
2023-04-26T00:36:53.348Z,8.06
2023-04-26T00:39:57.411Z,7.97
2023-04-26T00:42:59.492Z,7.81
2023-04-26T00:46:01.774Z,7.72
2023-04-26T00:49:03.763Z,7.70
2023-04-26T00:52:06.119Z,7.71
2023-04-26T00:55:08.956Z,7.74
2023-04-26T00:58:11.141Z,7.75
2023-04-26T01:01:13.588Z,7.77
2023-04-26T01:04:17.836Z,7.77
2023-04-26T01:07:20.664Z,7.79
2023-04-26T01:10:22.954Z,7.80
2023-04-26T01:13:26.285Z,7.79
2023-04-26T01:16:28.394Z,7.78
2023-04-26T01:19:30.285Z,7.76
2023-04-26T01:22:33.279Z,7.73
2023-04-26T01:25:35.733Z,7.70
2023-04-26T01:28:37.677Z,7.65
2023-04-26T01:31:40.126Z,7.67
2023-04-26T01:34:41.981Z,7.64
2023-04-26T01:37:46.350Z,7.56
2023-04-26T01:40:48.208Z,7.54
2023-04-26T01:43:50.531Z,7.54
2023-04-26T01:46:53.438Z,7.53
2023-04-26T01:49:55.351Z,7.49
2023-04-26T01:52:57.274Z,7.47
2023-04-26T01:56:02.925Z,7.46
2023-04-26T01:59:06.019Z,7.46
2023-04-26T02:02:08.371Z,7.44
2023-04-26T02:05:13.265Z,7.45
2023-04-26T02:08:15.090Z,7.42
2023-04-26T02:11:17.052Z,7.41
2023-04-26T02:14:19.105Z,7.42
2023-04-26T02:17:21.512Z,7.38
2023-04-26T02:20:23.522Z,7.41
2023-04-26T02:23:25.604Z,7.40
2023-04-26T02:26:27.510Z,7.39
2023-04-26T02:29:42.272Z,7.34
2023-04-26T02:32:46.288Z,7.40
2023-04-26T02:35:48.587Z,7.40
2023-04-26T02:38:51.384Z,7.45
2023-04-26T02:41:53.353Z,7.47
2023-04-26T02:44:55.597Z,7.47
2023-04-26T02:47:58.641Z,7.44
2023-04-26T02:51:00.633Z,7.47
2023-04-26T02:54:04.548Z,7.50
2023-04-26T02:57:08.427Z,7.52
2023-04-26T03:00:11.774Z,7.53
2023-04-26T03:03:14.831Z,7.59
2023-04-26T03:06:16.803Z,7.61
2023-04-26T03:09:18.705Z,7.66
2023-04-26T03:12:20.806Z,7.70
2023-04-26T03:15:23.524Z,7.73
2023-04-26T03:18:25.477Z,7.80
2023-04-26T03:21:28.099Z,7.87
2023-04-26T03:24:30.992Z,7.93
2023-04-26T03:27:32.831Z,8.03
2023-04-26T03:30:35.819Z,8.10
2023-04-26T03:33:37.824Z,8.22
2023-04-26T03:36:40.145Z,8.35
2023-04-26T03:39:42.242Z,8.46
2023-04-26T03:42:45.996Z,8.64
2023-04-26T03:45:49.544Z,8.82
2023-04-26T03:48:51.737Z,9.02
2023-04-26T03:51:53.842Z,9.25
2023-04-26T03:54:55.832Z,9.53
2023-04-26T03:57:57.748Z,9.78
2023-04-26T04:00:59.677Z,9.99
2023-04-26T04:04:02.069Z,10.16
2023-04-26T04:07:04.881Z,10.45
2023-04-26T04:10:10.139Z,10.71
2023-04-26T04:13:12.187Z,10.91
2023-04-26T04:16:14.090Z,11.14
2023-04-26T04:19:16.534Z,11.31
2023-04-26T04:22:19.036Z,11.60
2023-04-26T04:25:22.788Z,11.82
2023-04-26T04:28:25.065Z,12.02
2023-04-26T04:31:27.209Z,12.24
2023-04-26T04:34:29.302Z,12.45
2023-04-26T04:37:33.655Z,12.70
2023-04-26T04:40:35.902Z,12.88
2023-04-26T04:43:38.083Z,13.08
2023-04-26T04:46:41.732Z,13.25
2023-04-26T04:49:43.704Z,13.52
2023-04-26T04:52:46.330Z,13.70
2023-04-26T04:55:49.392Z,13.87
2023-04-26T04:58:52.560Z,14.01
2023-04-26T05:01:56.888Z,14.20
2023-04-26T05:04:59.065Z,14.33
2023-04-26T05:08:01.322Z,14.47
2023-04-26T05:11:03.215Z,14.64
2023-04-26T05:14:05.320Z,14.78
2023-04-26T05:17:07.344Z,14.95
2023-04-26T05:20:11.111Z,15.04
2023-04-26T05:23:13.240Z,15.22
2023-04-26T05:26:18.391Z,15.33
2023-04-26T05:29:20.336Z,15.50
2023-04-26T05:32:34.477Z,15.65
2023-04-26T05:36:02.585Z,15.87
2023-04-26T05:39:06.500Z,16.21
2023-04-26T05:42:08.617Z,16.15
2023-04-26T05:45:11.815Z,16.24
2023-04-26T05:48:14.128Z,16.36
2023-04-26T05:51:16.123Z,16.29
2023-04-26T05:54:18.111Z,16.61
2023-04-26T05:57:20.171Z,16.60
2023-04-26T06:00:23.689Z,16.94
2023-04-26T06:03:26.082Z,17.06
2023-04-26T06:06:29.030Z,17.14
2023-04-26T06:09:34.082Z,17.09
2023-04-26T06:12:35.941Z,17.42
2023-04-26T06:15:37.955Z,17.72
2023-04-26T06:18:40.537Z,17.58
2023-04-26T06:21:42.373Z,17.77
2023-04-26T06:24:44.244Z,17.81
2023-04-26T06:27:46.164Z,18.16
2023-04-26T06:30:48.759Z,18.13
2023-04-26T06:33:50.989Z,18.28
2023-04-26T06:36:53.516Z,18.02
2023-04-26T06:39:57.564Z,18.24
2023-04-26T06:43:01.473Z,18.38
2023-04-26T06:46:12.132Z,18.38
2023-04-26T06:49:14.696Z,18.45
2023-04-26T06:52:16.700Z,18.84
2023-04-26T06:55:19.077Z,18.98
2023-04-26T06:58:21.408Z,19.19
2023-04-26T07:01:23.308Z,19.33
2023-04-26T07:04:25.554Z,19.38
2023-04-26T07:07:27.673Z,19.52
2023-04-26T07:10:29.521Z,19.60
2023-04-26T07:13:31.744Z,19.57
2023-04-26T07:16:33.831Z,19.72
2023-04-26T07:19:36.009Z,19.64
2023-04-26T07:22:38.569Z,19.77
2023-04-26T07:25:41.013Z,20.02
2023-04-26T07:28:42.748Z,20.21
2023-04-26T07:31:45.393Z,20.43
2023-04-26T07:34:47.321Z,20.22
2023-04-26T07:37:49.118Z,20.68
2023-04-26T07:40:51.716Z,20.92
2023-04-26T07:43:54.019Z,21.17
2023-04-26T07:46:56.146Z,21.17
2023-04-26T07:49:58.093Z,21.28
2023-04-26T07:53:00.068Z,21.38
2023-04-26T07:56:05.918Z,21.50
2023-04-26T07:59:07.816Z,21.31
2023-04-26T08:02:09.890Z,21.38
2023-04-26T08:05:12.022Z,21.49
2023-04-26T08:08:13.966Z,21.45
2023-04-26T08:11:16.112Z,21.57
2023-04-26T08:14:18.024Z,21.50
2023-04-26T08:17:19.986Z,21.40
2023-04-26T08:20:21.858Z,21.47
2023-04-26T08:23:23.706Z,21.55
2023-04-26T08:26:25.630Z,21.79
2023-04-26T08:29:28.050Z,21.70
2023-04-26T08:32:33.028Z,22.08
2023-04-26T08:35:34.965Z,22.07
2023-04-26T08:38:36.915Z,22.20
2023-04-26T08:41:49.830Z,22.14
2023-04-26T08:44:53.270Z,22.25
2023-04-26T08:48:03.928Z,22.71
2023-04-26T08:51:09.330Z,22.93
2023-04-26T08:54:12.152Z,23.36
2023-04-26T08:57:14.863Z,23.47
2023-04-26T09:00:18.320Z,23.60
2023-04-26T09:03:23.588Z,23.79
2023-04-26T09:06:28.277Z,23.65
2023-04-26T09:09:42.715Z,23.52
2023-04-26T09:12:44.576Z,23.63
2023-04-26T09:15:48.573Z,23.65
2023-04-26T09:18:57.323Z,23.60
2023-04-26T09:21:59.304Z,23.61
2023-04-26T09:25:04.023Z,23.37
2023-04-26T09:28:20.807Z,22.80
2023-04-26T09:31:42.769Z,22.62
2023-04-26T09:34:47.063Z,22.99
2023-04-26T09:38:11.083Z,23.48
2023-04-26T09:41:14.019Z,23.52
2023-04-26T09:44:23.349Z,23.13
2023-04-26T09:47:25.444Z,23.13
2023-04-26T09:50:29.156Z,22.79
2023-04-26T09:53:47.360Z,22.57
2023-04-26T09:57:01.869Z,22.71
2023-04-26T10:00:09.366Z,23.05
2023-04-26T10:03:12.238Z,23.28
2023-04-26T10:06:14.431Z,23.43
2023-04-26T10:09:16.334Z,23.43
2023-04-26T10:12:20.293Z,23.67
2023-04-26T10:15:22.762Z,23.51
2023-04-26T10:18:24.759Z,23.36
2023-04-26T10:21:31.606Z,23.23
2023-04-26T10:24:35.282Z,23.15
2023-04-26T10:27:55.354Z,23.22
2023-04-26T10:30:59.445Z,22.99
2023-04-26T10:34:22.716Z,22.75
2023-04-26T10:37:24.650Z,23.22
2023-04-26T10:40:31.051Z,23.29
2023-04-26T10:43:33.045Z,23.48
2023-04-26T10:46:37.356Z,23.13
2023-04-26T10:49:47.093Z,22.62
2023-04-26T10:53:04.201Z,22.52
2023-04-26T10:56:06.919Z,22.27
2023-04-26T11:02:52.833Z,21.80
2023-04-26T11:05:55.639Z,21.91
2023-04-26T11:09:00.187Z,22.44
2023-04-26T11:12:04.635Z,22.46
2023-04-26T11:15:07.324Z,22.32
2023-04-26T11:18:09.300Z,22.23
2023-04-26T11:21:13.077Z,22.30
2023-04-26T11:24:16.002Z,22.43
2023-04-26T11:27:17.891Z,22.40
2023-04-26T11:30:20.127Z,21.97
2023-04-26T11:33:25.080Z,21.71
2023-04-26T11:36:27.291Z,22.09
2023-04-26T11:39:29.275Z,22.53
2023-04-26T11:42:31.314Z,22.58
2023-04-26T11:45:35.171Z,22.81
2023-04-26T11:48:39.047Z,22.96
2023-04-26T11:51:41.699Z,22.79
2023-04-26T11:54:44.523Z,22.40
2023-04-26T11:57:46.547Z,22.49
2023-04-26T12:01:04.363Z,22.47
2023-04-26T12:04:10.613Z,22.39
2023-04-26T12:07:12.765Z,22.75
2023-04-26T12:10:16.454Z,22.77
2023-04-26T12:13:19.806Z,23.07
2023-04-26T12:16:26.608Z,23.33
2023-04-26T12:19:33.114Z,23.01
2023-04-26T12:22:35.205Z,23.09
2023-04-26T12:25:42.313Z,22.90
2023-04-26T12:28:44.152Z,22.31
2023-04-26T12:31:46.891Z,21.87
2023-04-26T12:34:48.952Z,22.05
2023-04-26T12:37:53.997Z,21.99
2023-04-26T12:40:56.034Z,21.90
2023-04-26T12:43:58.356Z,21.99
2023-04-26T12:47:00.178Z,22.06
2023-04-26T12:50:02.107Z,22.17
2023-04-26T12:53:04.460Z,22.11
2023-04-26T12:56:06.940Z,22.19
2023-04-26T12:59:11.801Z,22.30
2023-04-26T13:02:13.814Z,22.59
2023-04-26T13:05:15.901Z,22.80
2023-04-26T13:08:17.881Z,23.00
2023-04-26T13:11:19.900Z,23.25
2023-04-26T13:14:23.360Z,23.30
2023-04-26T13:17:26.663Z,23.17
2023-04-26T13:20:30.841Z,22.85
2023-04-26T13:23:32.980Z,22.69
2023-04-26T13:26:34.851Z,22.52
2023-04-26T13:29:36.991Z,22.62
2023-04-26T13:32:38.864Z,22.86
2023-04-26T13:35:40.989Z,23.11
2023-04-26T13:38:45.598Z,23.07
2023-04-26T13:41:47.550Z,23.26
2023-04-26T13:44:51.495Z,22.88
2023-04-26T13:47:53.393Z,22.58
2023-04-26T13:50:58.987Z,22.37
2023-04-26T13:54:00.973Z,22.14
2023-04-26T13:57:04.003Z,22.15
2023-04-26T14:00:08.270Z,22.11
2023-04-26T14:03:13.572Z,22.03
2023-04-26T14:06:16.517Z,21.79
2023-04-26T14:09:18.584Z,21.71
2023-04-26T14:12:20.641Z,21.78
2023-04-26T14:15:22.869Z,21.78
2023-04-26T14:18:24.715Z,21.56
2023-04-26T14:21:26.912Z,21.44
2023-04-26T14:24:28.745Z,21.49
2023-04-26T14:27:30.738Z,21.63
2023-04-26T14:30:32.670Z,21.81
2023-04-26T14:33:35.149Z,21.74
2023-04-26T14:36:37.065Z,21.56
2023-04-26T14:39:39.045Z,21.45
2023-04-26T14:42:45.839Z,21.44
2023-04-26T14:45:48.044Z,21.47
2023-04-26T14:48:50.289Z,21.48
2023-04-26T14:51:53.689Z,21.35
2023-04-26T14:54:55.786Z,21.32
2023-04-26T14:57:57.678Z,21.11
2023-04-26T15:00:59.736Z,21.01
2023-04-26T15:04:01.951Z,21.08
2023-04-26T15:10:08.683Z,20.92
2023-04-26T15:13:10.814Z,20.71
2023-04-26T15:16:12.813Z,20.60
2023-04-26T15:19:14.838Z,20.50
2023-04-26T15:22:16.688Z,20.36
2023-04-26T15:25:18.805Z,20.27
2023-04-26T15:28:20.684Z,20.18
2023-04-26T15:31:22.700Z,20.10
2023-04-26T15:34:25.374Z,20.02
2023-04-26T15:37:27.257Z,19.90
2023-04-26T15:40:29.232Z,19.79
2023-04-26T15:43:31.036Z,19.71
2023-04-26T15:46:32.938Z,19.64
2023-04-26T15:49:34.948Z,19.59
2023-04-26T15:52:39.536Z,19.50
2023-04-26T15:55:41.959Z,19.40
2023-04-26T15:58:47.366Z,19.36
2023-04-26T16:01:49.251Z,19.22
2023-04-26T16:04:51.417Z,19.14
2023-04-26T16:07:53.399Z,19.03
2023-04-26T16:11:02.149Z,18.94
2023-04-26T16:14:04.114Z,18.87
2023-04-26T16:17:06.072Z,18.79
2023-04-26T16:20:08.861Z,18.71
2023-04-26T16:23:11.251Z,18.59
2023-04-26T16:26:13.050Z,18.46
2023-04-26T16:29:15.191Z,18.41
2023-04-26T16:32:17.327Z,18.30
2023-04-26T16:35:19.284Z,18.19
2023-04-26T16:38:22.230Z,18.08
2023-04-26T16:41:24.669Z,17.96
2023-04-26T16:44:26.509Z,17.78
2023-04-26T16:47:28.385Z,17.75
2023-04-26T16:50:30.242Z,17.67
2023-04-26T16:53:32.719Z,17.56
2023-04-26T16:56:34.639Z,17.43
2023-04-26T16:59:36.686Z,17.39
2023-04-26T17:02:40.579Z,17.29
2023-04-26T17:05:47.841Z,17.20
2023-04-26T17:08:49.735Z,17.16
2023-04-26T17:11:51.669Z,17.14
2023-04-26T17:14:53.556Z,17.06
2023-04-26T17:17:55.475Z,16.97
2023-04-26T17:20:57.817Z,16.92
2023-04-26T17:23:59.613Z,16.87
2023-04-26T17:27:01.564Z,16.83
2023-04-26T17:30:03.748Z,16.75
2023-04-26T17:33:07.622Z,16.65
2023-04-26T17:36:09.715Z,16.62
2023-04-26T17:39:11.626Z,16.51
2023-04-26T17:42:13.464Z,16.47
2023-04-26T17:45:15.540Z,16.40
2023-04-26T17:48:17.467Z,16.35
2023-04-26T17:51:19.370Z,16.30
2023-04-26T17:54:22.046Z,16.28
2023-04-26T17:57:24.140Z,16.25
2023-04-26T18:00:26.396Z,16.24
2023-04-26T18:03:31.501Z,16.19
2023-04-26T18:06:33.630Z,16.17
2023-04-26T18:09:35.522Z,16.10
2023-04-26T18:12:38.200Z,16.04
2023-04-26T18:15:40.086Z,15.99
2023-04-26T18:18:42.050Z,15.95
2023-04-26T18:21:43.917Z,15.92
2023-04-26T18:24:47.121Z,15.89
2023-04-26T18:27:49.096Z,15.85
2023-04-26T18:30:56.538Z,15.74
2023-04-26T18:33:58.400Z,15.69
2023-04-26T18:37:00.276Z,15.64
2023-04-26T18:40:02.212Z,15.61
2023-04-26T18:43:04.157Z,15.57
2023-04-26T18:46:07.190Z,15.52
2023-04-26T18:49:09.589Z,15.50
2023-04-26T18:52:11.486Z,15.47
2023-04-26T18:55:14.306Z,15.46
2023-04-26T18:58:16.807Z,15.41
2023-04-26T19:01:18.674Z,15.38
2023-04-26T19:04:20.986Z,15.35
2023-04-26T19:07:23.758Z,15.33
2023-04-26T19:10:25.778Z,15.25
2023-04-26T19:13:27.700Z,15.28
2023-04-26T19:16:29.736Z,15.28
2023-04-26T19:19:32.024Z,15.26
2023-04-26T19:22:33.927Z,15.23
2023-04-26T19:25:36.018Z,15.20
2023-04-26T19:28:38.298Z,15.15
2023-04-26T19:31:40.275Z,15.09
2023-04-26T19:34:42.178Z,15.10
2023-04-26T19:37:44.073Z,15.09
2023-04-26T19:40:46.289Z,15.07
2023-04-26T19:43:48.161Z,15.00
2023-04-26T19:46:50.177Z,14.96
2023-04-26T19:49:53.111Z,14.91
2023-04-26T19:52:54.999Z,14.87
2023-04-26T19:55:56.916Z,14.83
2023-04-26T19:58:58.724Z,14.80
2023-04-26T20:02:00.657Z,14.76
2023-04-26T20:05:02.539Z,14.70
2023-04-26T20:08:04.589Z,14.70
2023-04-26T20:11:07.242Z,14.66
2023-04-26T20:14:09.044Z,14.56
2023-04-26T20:17:11.043Z,14.55
2023-04-26T20:20:13.149Z,14.52
2023-04-26T20:23:15.098Z,14.47
2023-04-26T20:26:17.023Z,14.40
2023-04-26T20:29:18.947Z,14.37
2023-04-26T20:32:21.002Z,14.33
2023-04-26T22:48:44.057Z,12.30
2023-04-26T22:51:57.343Z,12.32
2023-04-26T22:55:08.234Z,12.33
2023-04-26T22:58:10.718Z,12.34
2023-04-26T23:01:12.674Z,12.32
2023-04-26T23:04:14.684Z,12.29
2023-04-26T23:07:16.784Z,12.33
2023-04-26T23:10:18.810Z,12.31
2023-04-26T23:13:21.625Z,12.31
2023-04-26T23:16:24.101Z,12.29
2023-04-26T23:19:26.804Z,12.29
2023-04-26T23:22:28.725Z,12.27
2023-04-26T23:25:30.715Z,12.27
2023-04-26T23:28:32.677Z,12.27
2023-04-26T23:31:34.683Z,12.24
2023-04-26T23:34:36.591Z,12.22
2023-04-26T23:37:38.584Z,12.21
2023-04-26T23:40:40.700Z,12.17
2023-04-26T23:43:42.563Z,12.13
2023-04-26T23:46:44.483Z,12.11
2023-04-26T23:49:46.429Z,12.07
2023-04-26T23:52:48.406Z,12.02
2023-04-26T23:55:50.445Z,11.97
2023-04-26T23:58:52.355Z,11.91
